sensor_id;sensor_type;location;lat;lon;timestamp;P1;durP1;ratioP1;P2;durP2;ratioP2
8663;SDS011;4369;47.842;13.096;2022-12-07T03:31:14;24.77;;;17.63;;
8663;SDS011;4369;47.842;13.096;2022-12-07T03:33:48;24.40;;;15.00;;
8663;SDS011;4369;47.842;13.096;2022-12-07T03:49:20;25.00;;;14.73;;
8663;SDS011;4369;47.842;13.096;2022-12-07T04:02:07;22.37;;;14.03;;
8663;SDS011;4369;47.842;13.096;2022-12-07T04:04:36;23.83;;;15.98;;
8663;SDS011;4369;47.842;13.096;2022-12-07T04:07:03;22.77;;;14.43;;
8663;SDS011;4369;47.842;13.096;2022-12-07T04:09:30;23.53;;;15.13;;
8663;SDS011;4369;47.842;13.096;2022-12-07T04:11:57;23.80;;;14.13;;
8663;SDS011;4369;47.842;13.096;2022-12-07T04:14:24;24.60;;;15.07;;
8663;SDS011;4369;47.842;13.096;2022-12-07T04:16:51;22.47;;;14.27;;
8663;SDS011;4369;47.842;13.096;2022-12-07T04:19:23;23.93;;;14.90;;
8663;SDS011;4369;47.842;13.096;2022-12-07T04:21:53;21.77;;;15.40;;
8663;SDS011;4369;47.842;13.096;2022-12-07T04:24:20;24.13;;;15.17;;
8663;SDS011;4369;47.842;13.096;2022-12-07T04:26:47;24.17;;;14.23;;
8663;SDS011;4369;47.842;13.096;2022-12-07T04:29:14;23.27;;;15.00;;
8663;SDS011;4369;47.842;13.096;2022-12-07T04:31:42;24.13;;;14.50;;
8663;SDS011;4369;47.842;13.096;2022-12-07T04:34:09;25.97;;;16.00;;
8663;SDS011;4369;47.842;13.096;2022-12-07T04:36:36;23.00;;;14.80;;
8663;SDS011;4369;47.842;13.096;2022-12-07T04:39:05;24.37;;;14.90;;
8663;SDS011;4369;47.842;13.096;2022-12-07T04:41:33;26.27;;;15.77;;
8663;SDS011;4369;47.842;13.096;2022-12-07T04:44:00;23.97;;;14.47;;
8663;SDS011;4369;47.842;13.096;2022-12-07T04:46:29;22.63;;;14.70;;
8663;SDS011;4369;47.842;13.096;2022-12-07T04:48:57;21.10;;;12.90;;
8663;SDS011;4369;47.842;13.096;2022-12-07T04:51:26;23.03;;;14.30;;
8663;SDS011;4369;47.842;13.096;2022-12-07T04:53:54;20.60;;;13.60;;
8663;SDS011;4369;47.842;13.096;2022-12-07T04:56:23;23.10;;;13.93;;
8663;SDS011;4369;47.842;13.096;2022-12-07T04:58:51;21.93;;;14.60;;
8663;SDS011;4369;47.842;13.096;2022-12-07T05:01:18;20.40;;;14.47;;
8663;SDS011;4369;47.842;13.096;2022-12-07T05:03:45;23.97;;;13.93;;
8663;SDS011;4369;47.842;13.096;2022-12-07T05:06:12;20.07;;;14.23;;
8663;SDS011;4369;47.842;13.096;2022-12-07T05:08:39;22.73;;;13.90;;
8663;SDS011;4369;47.842;13.096;2022-12-07T05:11:07;22.53;;;14.43;;
8663;SDS011;4369;47.842;13.096;2022-12-07T05:13:36;19.63;;;12.40;;
8663;SDS011;4369;47.842;13.096;2022-12-07T05:16:02;20.23;;;13.87;;
8663;SDS011;4369;47.842;13.096;2022-12-07T05:18:30;19.83;;;13.63;;
8663;SDS011;4369;47.842;13.096;2022-12-07T05:20:56;20.47;;;12.70;;
8663;SDS011;4369;47.842;13.096;2022-12-07T05:23:23;17.97;;;12.97;;
8663;SDS011;4369;47.842;13.096;2022-12-07T05:25:50;20.37;;;13.13;;
8663;SDS011;4369;47.842;13.096;2022-12-07T05:28:17;22.90;;;14.53;;
8663;SDS011;4369;47.842;13.096;2022-12-07T05:30:45;20.23;;;13.07;;
8663;SDS011;4369;47.842;13.096;2022-12-07T05:33:12;18.57;;;13.30;;
8663;SDS011;4369;47.842;13.096;2022-12-07T05:35:38;21.10;;;13.50;;
8663;SDS011;4369;47.842;13.096;2022-12-07T05:38:05;19.73;;;13.80;;
8663;SDS011;4369;47.842;13.096;2022-12-07T05:40:32;17.67;;;12.83;;
8663;SDS011;4369;47.842;13.096;2022-12-07T05:45:35;18.00;;;12.40;;
8663;SDS011;4369;47.842;13.096;2022-12-07T05:48:08;19.63;;;12.40;;
8663;SDS011;4369;47.842;13.096;2022-12-07T05:50:34;18.93;;;12.33;;
8663;SDS011;4369;47.842;13.096;2022-12-07T05:53:01;18.13;;;12.80;;
8663;SDS011;4369;47.842;13.096;2022-12-07T05:55:28;18.73;;;12.27;;
8663;SDS011;4369;47.842;13.096;2022-12-07T05:58:07;16.77;;;12.27;;
8663;SDS011;4369;47.842;13.096;2022-12-07T06:00:53;18.17;;;12.77;;
8663;SDS011;4369;47.842;13.096;2022-12-07T06:03:22;39.77;;;26.30;;
8663;SDS011;4369;47.842;13.096;2022-12-07T06:05:48;24.40;;;17.43;;
8663;SDS011;4369;47.842;13.096;2022-12-07T06:08:15;23.57;;;14.30;;
8663;SDS011;4369;47.842;13.096;2022-12-07T06:10:42;17.50;;;13.63;;
8663;SDS011;4369;47.842;13.096;2022-12-07T06:13:09;17.73;;;12.70;;
8663;SDS011;4369;47.842;13.096;2022-12-07T06:15:35;17.80;;;12.43;;
8663;SDS011;4369;47.842;13.096;2022-12-07T06:18:02;18.50;;;12.50;;
8663;SDS011;4369;47.842;13.096;2022-12-07T06:20:30;17.50;;;11.80;;
8663;SDS011;4369;47.842;13.096;2022-12-07T06:22:57;19.80;;;12.93;;
8663;SDS011;4369;47.842;13.096;2022-12-07T06:25:24;17.10;;;12.23;;
8663;SDS011;4369;47.842;13.096;2022-12-07T06:38:03;17.90;;;12.20;;
8663;SDS011;4369;47.842;13.096;2022-12-07T11:08:42;9.90;;;7.47;;
8663;SDS011;4369;47.842;13.096;2022-12-07T11:11:22;14.40;;;8.23;;
8663;SDS011;4369;47.842;13.096;2022-12-07T11:23:48;14.80;;;9.17;;
8663;SDS011;4369;47.842;13.096;2022-12-07T11:26:24;13.77;;;10.50;;
8663;SDS011;4369;47.842;13.096;2022-12-07T11:29:06;15.17;;;8.67;;
8663;SDS011;4369;47.842;13.096;2022-12-07T11:31:54;9.57;;;7.93;;
8663;SDS011;4369;47.842;13.096;2022-12-07T11:34:33;9.60;;;7.40;;
8663;SDS011;4369;47.842;13.096;2022-12-07T11:37:06;9.50;;;7.70;;
8663;SDS011;4369;47.842;13.096;2022-12-07T11:39:41;8.87;;;6.33;;
8663;SDS011;4369;47.842;13.096;2022-12-07T11:42:19;8.73;;;6.97;;
8663;SDS011;4369;47.842;13.096;2022-12-07T11:44:56;9.37;;;7.33;;
8663;SDS011;4369;47.842;13.096;2022-12-07T11:47:28;7.47;;;6.53;;
8663;SDS011;4369;47.842;13.096;2022-12-07T11:55:13;7.97;;;5.90;;
8663;SDS011;4369;47.842;13.096;2022-12-07T12:10:19;7.10;;;5.83;;
8663;SDS011;4369;47.842;13.096;2022-12-07T12:15:48;7.17;;;6.20;;
8663;SDS011;4369;47.842;13.096;2022-12-07T12:18:31;8.07;;;6.27;;
8663;SDS011;4369;47.842;13.096;2022-12-07T12:21:19;10.77;;;7.30;;
8663;SDS011;4369;47.842;13.096;2022-12-07T12:23:50;8.07;;;6.47;;
8663;SDS011;4369;47.842;13.096;2022-12-07T12:26:24;8.20;;;6.50;;
8663;SDS011;4369;47.842;13.096;2022-12-07T12:28:54;7.50;;;6.67;;
8663;SDS011;4369;47.842;13.096;2022-12-07T12:31:31;6.77;;;5.63;;
8663;SDS011;4369;47.842;13.096;2022-12-07T12:37:39;6.80;;;6.03;;
8663;SDS011;4369;47.842;13.096;2022-12-07T12:43:38;7.67;;;6.67;;
8663;SDS011;4369;47.842;13.096;2022-12-07T12:55:16;6.60;;;5.90;;
8663;SDS011;4369;47.842;13.096;2022-12-07T13:52:39;16.50;;;9.10;;
8663;SDS011;4369;47.842;13.096;2022-12-07T13:55:13;13.47;;;7.80;;
8663;SDS011;4369;47.842;13.096;2022-12-07T13:57:42;20.92;;;9.38;;
8663;SDS011;4369;47.842;13.096;2022-12-07T14:02:53;19.57;;;8.90;;
8663;SDS011;4369;47.842;13.096;2022-12-07T14:05:23;12.10;;;7.10;;
8663;SDS011;4369;47.842;13.096;2022-12-07T14:07:54;13.53;;;7.83;;
8663;SDS011;4369;47.842;13.096;2022-12-07T14:10:23;12.13;;;6.77;;
8663;SDS011;4369;47.842;13.096;2022-12-07T14:12:52;19.43;;;8.80;;
8663;SDS011;4369;47.842;13.096;2022-12-07T14:15:20;12.57;;;7.20;;
8663;SDS011;4369;47.842;13.096;2022-12-07T14:17:52;15.07;;;7.90;;
8663;SDS011;4369;47.842;13.096;2022-12-07T14:20:29;9.37;;;7.00;;
8663;SDS011;4369;47.842;13.096;2022-12-07T14:23:00;9.10;;;6.85;;
8663;SDS011;4369;47.842;13.096;2022-12-07T14:25:43;12.17;;;7.47;;
8663;SDS011;4369;47.842;13.096;2022-12-07T14:28:24;11.23;;;7.47;;
8663;SDS011;4369;47.842;13.096;2022-12-07T14:30:52;13.23;;;8.20;;
8663;SDS011;4369;47.842;13.096;2022-12-07T14:33:22;19.13;;;8.07;;
8663;SDS011;4369;47.842;13.096;2022-12-07T14:35:54;13.83;;;7.80;;
8663;SDS011;4369;47.842;13.096;2022-12-07T14:38:37;9.40;;;6.70;;
8663;SDS011;4369;47.842;13.096;2022-12-07T14:41:05;13.63;;;8.00;;
8663;SDS011;4369;47.842;13.096;2022-12-07T14:43:56;13.47;;;7.53;;
8663;SDS011;4369;47.842;13.096;2022-12-07T15:27:54;12.07;;;7.90;;
8663;SDS011;4369;47.842;13.096;2022-12-07T15:32:57;10.97;;;6.70;;
8663;SDS011;4369;47.842;13.096;2022-12-07T15:35:24;12.30;;;8.10;;
8663;SDS011;4369;47.842;13.096;2022-12-07T15:45:38;9.67;;;7.53;;
8663;SDS011;4369;47.842;13.096;2022-12-07T15:48:05;11.23;;;6.53;;
8663;SDS011;4369;47.842;13.096;2022-12-07T15:50:32;10.07;;;6.97;;
8663;SDS011;4369;47.842;13.096;2022-12-07T15:52:59;9.53;;;7.17;;
8663;SDS011;4369;47.842;13.096;2022-12-07T15:55:26;9.67;;;6.73;;
8663;SDS011;4369;47.842;13.096;2022-12-07T16:00:18;10.60;;;6.60;;
8663;SDS011;4369;47.842;13.096;2022-12-07T16:05:23;11.03;;;7.57;;
8663;SDS011;4369;47.842;13.096;2022-12-07T16:07:50;10.47;;;6.80;;
8663;SDS011;4369;47.842;13.096;2022-12-07T16:10:17;12.07;;;6.57;;
8663;SDS011;4369;47.842;13.096;2022-12-07T16:12:44;16.63;;;10.20;;
8663;SDS011;4369;47.842;13.096;2022-12-07T16:15:11;16.03;;;13.13;;
8663;SDS011;4369;47.842;13.096;2022-12-07T16:17:38;10.30;;;7.73;;
8663;SDS011;4369;47.842;13.096;2022-12-07T16:20:05;9.33;;;7.27;;
8663;SDS011;4369;47.842;13.096;2022-12-07T16:30:11;14.23;;;10.90;;
8663;SDS011;4369;47.842;13.096;2022-12-07T16:32:41;11.97;;;8.83;;
8663;SDS011;4369;47.842;13.096;2022-12-07T16:35:08;48.27;;;29.43;;
8663;SDS011;4369;47.842;13.096;2022-12-07T16:37:35;31.47;;;20.83;;
8663;SDS011;4369;47.842;13.096;2022-12-07T16:40:02;21.37;;;14.83;;
8663;SDS011;4369;47.842;13.096;2022-12-07T16:45:14;14.17;;;9.73;;
8663;SDS011;4369;47.842;13.096;2022-12-07T16:47:41;26.20;;;15.40;;
8663;SDS011;4369;47.842;13.096;2022-12-07T16:50:08;15.80;;;11.00;;
8663;SDS011;4369;47.842;13.096;2022-12-07T16:55:07;16.57;;;10.90;;
8663;SDS011;4369;47.842;13.096;2022-12-07T16:57:36;15.07;;;11.10;;
8663;SDS011;4369;47.842;13.096;2022-12-07T17:00:09;8.50;;;7.10;;
8663;SDS011;4369;47.842;13.096;2022-12-07T17:02:39;10.27;;;7.10;;
8663;SDS011;4369;47.842;13.096;2022-12-07T17:05:12;9.10;;;6.87;;
8663;SDS011;4369;47.842;13.096;2022-12-07T17:07:40;8.60;;;6.90;;
8663;SDS011;4369;47.842;13.096;2022-12-07T17:10:07;8.80;;;6.63;;
8663;SDS011;4369;47.842;13.096;2022-12-07T17:12:36;12.70;;;10.27;;
8663;SDS011;4369;47.842;13.096;2022-12-07T17:15:04;10.33;;;8.30;;
8663;SDS011;4369;47.842;13.096;2022-12-07T17:17:44;9.87;;;7.07;;
8663;SDS011;4369;47.842;13.096;2022-12-07T17:20:12;7.67;;;6.77;;
8663;SDS011;4369;47.842;13.096;2022-12-07T17:22:41;10.47;;;6.70;;
8663;SDS011;4369;47.842;13.096;2022-12-07T17:25:08;6.93;;;6.07;;
8663;SDS011;4369;47.842;13.096;2022-12-07T17:27:36;8.33;;;6.63;;
8663;SDS011;4369;47.842;13.096;2022-12-07T17:30:03;12.50;;;7.03;;
8663;SDS011;4369;47.842;13.096;2022-12-07T17:32:31;9.13;;;6.60;;
8663;SDS011;4369;47.842;13.096;2022-12-07T17:35:03;9.90;;;6.93;;
8663;SDS011;4369;47.842;13.096;2022-12-07T17:37:32;15.77;;;11.47;;
8663;SDS011;4369;47.842;13.096;2022-12-07T17:40:00;8.90;;;6.67;;
8663;SDS011;4369;47.842;13.096;2022-12-07T17:42:29;7.87;;;5.63;;
8663;SDS011;4369;47.842;13.096;2022-12-07T17:45:05;8.63;;;6.77;;
8663;SDS011;4369;47.842;13.096;2022-12-07T17:47:34;11.87;;;6.47;;
8663;SDS011;4369;47.842;13.096;2022-12-07T17:50:04;10.27;;;7.27;;
8663;SDS011;4369;47.842;13.096;2022-12-07T17:52:33;9.80;;;6.40;;
8663;SDS011;4369;47.842;13.096;2022-12-07T17:58:09;7.07;;;5.50;;
8663;SDS011;4369;47.842;13.096;2022-12-07T18:03:14;8.97;;;5.93;;
8663;SDS011;4369;47.842;13.096;2022-12-07T18:05:54;7.07;;;5.63;;
8663;SDS011;4369;47.842;13.096;2022-12-07T18:08:23;7.37;;;6.23;;
8663;SDS011;4369;47.842;13.096;2022-12-07T18:10:58;10.03;;;6.07;;
8663;SDS011;4369;47.842;13.096;2022-12-07T18:13:34;8.17;;;6.73;;
8663;SDS011;4369;47.842;13.096;2022-12-07T18:16:17;23.33;;;19.73;;
8663;SDS011;4369;47.842;13.096;2022-12-07T18:19:05;9.50;;;8.20;;
8663;SDS011;4369;47.842;13.096;2022-12-07T18:21:39;11.20;;;8.20;;
8663;SDS011;4369;47.842;13.096;2022-12-07T18:24:10;14.80;;;8.87;;
8663;SDS011;4369;47.842;13.096;2022-12-07T18:26:50;9.13;;;7.30;;
8663;SDS011;4369;47.842;13.096;2022-12-07T18:29:22;18.33;;;12.97;;
8663;SDS011;4369;47.842;13.096;2022-12-07T18:32:08;11.17;;;7.80;;
8663;SDS011;4369;47.842;13.096;2022-12-07T18:34:46;7.80;;;6.03;;
8663;SDS011;4369;47.842;13.096;2022-12-07T18:37:17;7.00;;;5.63;;
8663;SDS011;4369;47.842;13.096;2022-12-07T18:39:52;7.53;;;6.40;;
8663;SDS011;4369;47.842;13.096;2022-12-07T18:42:19;8.13;;;6.03;;
8663;SDS011;4369;47.842;13.096;2022-12-07T18:44:46;7.63;;;6.33;;
8663;SDS011;4369;47.842;13.096;2022-12-07T18:47:13;7.63;;;5.93;;
8663;SDS011;4369;47.842;13.096;2022-12-07T18:49:40;8.47;;;6.60;;
8663;SDS011;4369;47.842;13.096;2022-12-07T18:52:07;8.00;;;6.20;;
8663;SDS011;4369;47.842;13.096;2022-12-07T18:54:42;8.40;;;6.53;;
8663;SDS011;4369;47.842;13.096;2022-12-07T18:57:10;7.83;;;6.67;;
8663;SDS011;4369;47.842;13.096;2022-12-07T18:59:39;7.17;;;5.97;;
8663;SDS011;4369;47.842;13.096;2022-12-07T19:02:14;7.10;;;6.33;;
8663;SDS011;4369;47.842;13.096;2022-12-07T19:07:08;8.43;;;6.83;;
8663;SDS011;4369;47.842;13.096;2022-12-07T19:09:36;9.27;;;6.83;;
8663;SDS011;4369;47.842;13.096;2022-12-07T19:53:26;22.00;;;15.83;;
8663;SDS011;4369;47.842;13.096;2022-12-07T19:55:53;17.37;;;13.97;;
